首页
METAR-TAF:

METAR-TAF

机场 :

廊曼国际机场

曼谷, 泰国

纬度: 13-54-45N, 经度: 100-36-24E, 海拔: 4米

当前天气观测

该预报发布于22分钟前的08:30 UTC
风速8节,风向南转西南,在东转东南西转西南之间变化
温度 37°C
湿度 48%
气压 1006 hPa
能见度10公里或以上
散云层高于3500英尺

METAR: VTBD 230830Z 20008KT 120V240 9999 SCT035 37/24 Q1006 NOSIG

时间: 15:52 (08:52 UTC)

预报

该预报发布于3小时和52分钟前的05:00 UTC
预报有效从23日的 06点(UTC)到 24日的 12点(UTC)
风速8节,风向
能见度10公里或以上
少量云层高于2000英尺
成为
从 23日的 20点(UTC)到 23日的 22点(UTC)
风速5节,风向东南
成为
从 24日的 01点(UTC)到 24日的 03点(UTC)
风速8节,风向
短暂存在
从 24日的 08点(UTC)到 24日的 12点(UTC)
风速15节,风向多变
能見度: 5000
少量云层高于1800英尺, 积雨云.
散云层高于3000英尺
多云层高于10000英尺
雷暴, 雨

TAF: VTBD 230500Z 2306/2412 19008KT 9999 FEW020 BECMG 2320/2322 13005KT BECMG 2401/2403 19008KT TEMPO 2408/2412 VRB15KT 5000 TSRA FEW018CB SCT030 BKN100

超过4000个机场的气象观测和天气预报(METAR&TAF报告)。

可查询的气象台以黄色和红色小点在地图上表示。

将鼠标移到小点上方,可查看气象台名称。

然后点击查看天气观测和预报。

如需切换地图:点击带黑十字的绿色按钮放大地图;点击带横线的绿色按钮缩小地图;或者点击绿色箭头查看邻近地区的地图。


METAR-TAF: